Time;durP1;ratioP1;P1;durP2;ratioP2;P2;SDS_P1;SDS_P2;PMS_P1;PMS_P2;Temp;Humidity;BMP_temperature;BMP_pressure;BME280_temperature;BME280_humidity;BME280_pressure;Samples;Min_cycle;Max_cycle;Signal;HPM_P1;HPM_P2
2022/07/06 00:01:13;;;;;;;0.45;0.45;;;19.50;77.90;;;19.78;63.15;95249.41;5070001;28;20641;-79
2022/07/06 00:03:40;;;;;;;0.40;0.40;;;19.50;78.00;;;19.80;62.94;95243.88;5073445;28;20281;-79
2022/07/06 00:06:07;;;;;;;0.45;0.45;;;19.50;78.10;;;19.80;62.41;95239.34;5031444;28;20231;-78
2022/07/06 00:08:34;;;;;;;0.40;0.40;;;19.50;78.00;;;19.80;62.85;95241.22;5063711;28;20641;-79
2022/07/06 00:11:01;;;;;;;0.40;0.40;;;19.50;77.90;;;19.77;62.99;95249.66;5052879;28;20215;-79
2022/07/06 00:13:29;;;;;;;0.50;0.50;;;19.50;77.90;;;19.75;62.57;95252.56;5053583;28;20286;-78
2022/07/06 00:15:56;;;;;;;0.40;0.40;;;19.50;77.90;;;19.74;62.63;95263.44;5053141;28;20221;-78
2022/07/06 00:18:23;;;;;;;0.40;0.40;;;19.50;77.90;;;19.68;62.45;95260.69;5053020;28;20195;-79
2022/07/06 00:20:51;;;;;;;0.50;0.50;;;19.40;77.70;;;19.65;62.26;95255.88;5053064;28;20308;-79
2022/07/06 00:23:18;;;;;;;0.50;0.50;;;19.40;77.70;;;19.59;62.75;95264.00;5053759;28;20217;-79
2022/07/06 00:25:45;;;;;;;0.50;0.50;;;19.40;77.60;;;19.53;62.20;95265.78;5053613;28;20211;-79
2022/07/06 00:28:12;;;;;;;0.50;0.50;;;19.30;78.40;;;19.44;62.82;95257.34;5049468;28;20207;-79
2022/07/06 00:30:39;;;;;;;0.50;0.50;;;19.30;77.50;;;19.38;62.31;95257.50;5053232;28;20221;-78
2022/07/06 00:33:07;;;;;;;0.50;0.50;;;19.10;77.30;;;19.30;62.13;95250.75;5037388;28;20191;-79
2022/07/06 00:35:34;;;;;;;0.63;0.63;;;19.00;77.30;;;19.22;61.99;95264.41;5055392;28;20307;-78
2022/07/06 00:38:03;;;;;;;0.57;0.57;;;19.00;77.30;;;19.11;62.17;95258.88;5052046;28;20231;-79
2022/07/06 00:40:30;;;;;;;0.50;0.50;;;18.90;77.30;;;19.02;62.33;95261.13;5036485;28;20700;-79
2022/07/06 00:42:57;;;;;;;0.50;0.50;;;18.80;77.20;;;18.94;62.37;95260.69;5030812;28;20207;-79
2022/07/06 00:45:24;;;;;;;0.50;0.50;;;18.70;77.30;;;18.85;62.39;95268.19;5053885;28;20746;-79
2022/07/06 00:47:53;;;;;;;0.50;0.50;;;18.70;77.50;;;18.76;62.55;95257.13;5032262;28;20222;-79
2022/07/06 00:50:21;;;;;;;0.50;0.50;;;18.60;77.60;;;18.68;62.61;95262.81;5036085;28;20609;-79
2022/07/06 00:52:52;;;;;;;0.40;0.40;;;18.40;77.40;;;18.60;62.32;95255.19;5069288;28;20196;-79
2022/07/06 00:55:26;;;;;;;0.55;0.55;;;18.30;77.30;;;18.51;62.06;95254.75;5063197;28;20582;-78
2022/07/06 00:57:55;;;;;;;0.50;0.50;;;18.30;77.40;;;18.41;62.34;95255.34;5044313;28;20635;-79
2022/07/06 01:00:26;;;;;;;0.50;0.50;;;18.20;77.30;;;18.33;62.25;95264.44;5054603;28;20218;-79
2022/07/06 01:02:53;;;;;;;0.60;0.60;;;18.10;77.50;;;18.27;62.33;95254.75;5072923;28;20379;-79
2022/07/06 01:05:22;;;;;;;0.50;0.50;;;18.10;77.30;;;18.19;62.33;95250.59;5055776;28;20234;-79
2022/07/06 01:07:51;;;;;;;0.50;0.50;;;18.00;77.40;;;18.12;62.25;95249.91;5050531;28;20286;-79
2022/07/06 01:10:21;;;;;;;0.47;0.47;;;17.90;77.40;;;18.06;62.18;95251.63;5055827;28;20688;-79
2022/07/06 01:12:49;;;;;;;0.60;0.60;;;17.80;77.50;;;17.98;62.68;95249.34;5089221;28;20281;-79
2022/07/06 01:15:22;;;;;;;0.50;0.50;;;17.70;77.40;;;17.92;62.36;95248.38;5049858;28;20310;-78
2022/07/06 01:17:51;;;;;;;0.55;0.55;;;17.70;77.80;;;17.85;62.47;95237.06;5068775;28;20246;-78
2022/07/06 01:20:25;;;;;;;0.50;0.50;;;17.60;77.70;;;17.81;62.41;95246.53;5020247;28;20310;-79
2022/07/06 01:22:56;;;;;;;0.50;0.50;;;17.60;78.00;;;17.75;63.08;95245.59;5068677;28;20226;-78
2022/07/06 01:25:23;;;;;;;0.52;0.52;;;17.50;78.00;;;17.72;63.00;95248.72;5082694;28;20273;-78
2022/07/06 01:27:51;;;;;;;0.50;0.50;;;17.50;77.90;;;17.69;63.06;95240.41;5055654;28;20226;-79
2022/07/06 01:30:19;;;;;;;0.50;0.50;;;17.40;78.60;;;17.61;62.82;95241.50;5055566;28;20228;-78
2022/07/06 01:32:47;;;;;;;0.60;0.60;;;17.40;78.00;;;17.58;63.02;95239.34;5055443;28;20197;-79
2022/07/06 01:35:16;;;;;;;0.50;0.50;;;17.40;78.00;;;17.53;63.82;95241.88;5031289;28;20223;-78
2022/07/06 01:37:43;;;;;;;0.50;0.50;;;17.40;78.40;;;17.48;65.30;95239.06;5035384;28;20227;-79
2022/07/06 01:40:12;;;;;;;0.60;0.60;;;17.30;79.00;;;17.49;65.42;95241.50;5049116;28;20211;-78
2022/07/06 01:42:40;;;;;;;0.50;0.50;;;17.30;79.60;;;17.50;65.04;95234.34;5051993;28;20205;-79
2022/07/06 01:45:09;;;;;;;0.60;0.60;;;17.30;79.80;;;17.52;65.10;95234.94;5021578;28;20219;-79
2022/07/06 01:47:37;;;;;;;0.52;0.52;;;17.30;79.80;;;17.55;65.17;95232.66;5038893;28;20195;-78
2022/07/06 01:50:08;;;;;;;0.60;0.60;;;17.30;79.80;;;17.56;65.09;95234.22;5035382;28;20218;-78
2022/07/06 01:52:39;;;;;;;0.50;0.50;;;17.30;79.80;;;17.61;64.41;95238.88;5065320;28;20660;-78
2022/07/06 01:55:07;;;;;;;0.50;0.50;;;17.30;79.80;;;17.59;64.06;95239.09;5035020;28;20241;-79
2022/07/06 01:57:36;;;;;;;0.60;0.60;;;17.30;79.40;;;17.54;64.17;95227.53;5035172;28;20233;-79
2022/07/06 02:00:07;;;;;;;0.43;0.43;;;17.30;79.20;;;17.56;63.79;95228.94;5035203;28;20318;-78
2022/07/06 02:02:44;;;;;;;0.50;0.50;;;17.30;79.30;;;17.52;63.78;95234.94;5077809;28;20202;-78
2022/07/06 02:05:12;;;;;;;0.50;0.50;;;17.30;79.00;;;17.48;63.69;95229.28;5053378;28;20218;-79
2022/07/06 02:07:39;;;;;;;0.55;0.55;;;17.20;78.90;;;17.43;63.85;95234.44;5071612;28;20191;-79
2022/07/06 02:10:08;;;;;;;0.50;0.50;;;17.20;78.80;;;17.39;63.81;95227.97;5037924;28;20226;-79
2022/07/06 02:12:35;;;;;;;0.50;0.50;;;17.10;78.80;;;17.35;63.72;95237.44;5044623;28;20203;-79
2022/07/06 02:15:03;;;;;;;0.60;0.60;;;17.10;78.70;;;17.28;63.86;95227.72;5057818;28;20225;-78
2022/07/06 02:17:30;;;;;;;0.50;0.50;;;17.00;78.70;;;17.25;63.59;95230.03;5070189;28;20245;-79
2022/07/06 02:19:58;;;;;;;0.50;0.50;;;17.00;78.80;;;17.21;63.31;95236.78;5052151;28;20246;-79
2022/07/06 02:22:25;;;;;;;0.50;0.50;;;16.90;78.70;;;17.16;63.28;95237.47;5051227;28;20237;-79
2022/07/06 02:24:53;;;;;;;0.50;0.50;;;16.90;78.80;;;17.09;63.29;95228.81;5049160;28;20796;-78
2022/07/06 02:27:20;;;;;;;0.50;0.50;;;16.80;78.80;;;17.09;63.26;95234.13;5018243;28;20272;-79
2022/07/06 02:29:48;;;;;;;0.60;0.60;;;16.80;78.80;;;17.05;63.56;95232.94;5051006;28;20219;-79
2022/07/06 02:32:15;;;;;;;0.50;0.50;;;16.80;78.90;;;17.04;63.80;95231.31;5034632;28;20214;-79
2022/07/06 02:34:43;;;;;;;0.57;0.57;;;16.70;79.00;;;17.00;63.97;95235.47;5064556;28;20659;-79
2022/07/06 02:37:10;;;;;;;0.60;0.60;;;16.70;78.90;;;16.96;63.97;95232.44;5052103;28;20238;-78
2022/07/06 02:39:38;;;;;;;0.70;0.70;;;16.70;79.00;;;16.95;63.55;95236.13;5037840;28;20226;-79
2022/07/06 02:42:08;;;;;;;0.50;0.50;;;16.60;79.00;;;16.92;63.78;95234.72;5026224;28;20646;-79
2022/07/06 02:44:35;;;;;;;0.60;0.60;;;16.70;79.10;;;16.89;63.83;95229.84;5051734;28;20206;-79
2022/07/06 02:47:03;;;;;;;0.70;0.70;;;16.60;79.00;;;16.87;63.54;95229.28;5050391;28;20211;-79
2022/07/06 02:49:30;;;;;;;0.60;0.60;;;16.60;79.30;;;16.86;64.18;95227.66;5058537;28;20207;-79
2022/07/06 02:51:57;;;;;;;0.60;0.60;;;16.60;79.30;;;16.86;63.81;95222.34;5049543;28;20282;-79
2022/07/06 02:54:25;;;;;;;0.70;0.70;;;16.60;79.30;;;16.85;64.04;95226.03;5048815;28;20206;-78
2022/07/06 02:56:53;;;;;;;0.68;0.68;;;16.60;79.30;;;16.86;63.88;95221.56;5054573;28;20309;-79
2022/07/06 02:59:20;;;;;;;0.60;0.60;;;16.60;79.30;;;16.86;64.17;95221.56;5054168;28;20202;-79
2022/07/06 03:01:48;;;;;;;0.60;0.60;;;16.50;79.20;;;16.87;64.50;95225.78;5070285;28;20532;-79
2022/07/06 03:04:16;;;;;;;0.50;0.50;;;16.60;79.30;;;16.85;64.39;95226.03;5054451;28;20203;-79
2022/07/06 03:06:44;;;;;;;0.52;0.52;;;16.60;79.30;;;16.82;64.38;95226.50;5069600;28;20308;-79
2022/07/06 03:09:11;;;;;;;0.50;0.50;;;16.60;79.30;;;16.81;64.41;95238.13;5053898;28;20667;-79
2022/07/06 03:11:39;;;;;;;0.40;0.40;;;16.60;79.30;;;16.79;64.39;95234.88;5051645;28;20218;-79
2022/07/06 03:14:07;;;;;;;0.52;0.52;;;16.60;79.30;;;16.77;64.22;95251.00;5033257;28;20194;-79
2022/07/06 03:16:37;;;;;;;0.60;0.60;;;16.50;79.20;;;16.73;63.80;95243.72;5063330;28;20699;-79
2022/07/06 03:19:05;;;;;;;0.70;0.70;;;16.50;79.20;;;16.73;64.26;95254.31;5048753;28;20319;-79
2022/07/06 03:21:33;;;;;;;0.57;0.57;;;16.50;79.20;;;16.68;64.11;95254.16;5062537;28;20251;-79
2022/07/06 03:24:01;;;;;;;0.55;0.55;;;16.50;79.20;;;16.61;63.86;95263.00;5045405;28;20202;-79
2022/07/06 03:26:29;;;;;;;0.60;0.60;;;16.40;79.20;;;16.60;63.85;95265.84;5052833;28;20549;-79
2022/07/06 03:28:57;;;;;;;0.60;0.60;;;16.40;79.10;;;16.56;63.81;95265.47;5066923;28;20199;-79
2022/07/06 03:31:24;;;;;;;0.60;0.60;;;16.40;80.00;;;16.54;63.83;95264.06;5046823;28;20467;-79
2022/07/06 03:33:52;;;;;;;0.60;0.60;;;16.30;79.10;;;16.50;63.69;95261.06;5056196;28;20666;-79
2022/07/06 03:36:19;;;;;;;0.63;0.63;;;16.30;79.10;;;16.45;63.63;95260.91;5056680;28;20210;-78
2022/07/06 03:38:46;;;;;;;0.50;0.50;;;16.30;79.00;;;16.42;63.89;95266.66;5054598;28;20576;-78
2022/07/06 03:41:14;;;;;;;0.60;0.60;;;16.20;79.00;;;16.40;64.51;95264.22;5054298;28;20302;-78
2022/07/06 03:43:41;;;;;;;0.60;0.60;;;16.20;79.00;;;16.41;64.18;95267.69;5055467;28;20203;-78
2022/07/06 03:46:09;;;;;;;0.60;0.60;;;16.20;79.00;;;16.43;64.91;95255.03;5057303;28;20678;-79
2022/07/06 03:48:36;;;;;;;0.65;0.65;;;16.30;79.30;;;16.44;64.77;95252.19;5060037;28;20209;-77
2022/07/06 03:51:06;;;;;;;0.50;0.50;;;16.20;79.50;;;16.50;64.62;95255.75;5050198;28;20230;-79
2022/07/06 03:53:33;;;;;;;0.50;0.50;;;16.30;79.70;;;16.53;64.78;95233.31;5040765;28;20252;-79
2022/07/06 03:58:47;;;;;;;0.60;0.60;;;16.30;79.90;;;16.64;65.18;95240.56;5056550;28;20223;-79
2022/07/06 04:01:14;;;;;;;0.60;0.60;;;16.40;80.00;;;16.67;64.72;95261.28;5040494;28;20223;-78
2022/07/06 04:03:42;;;;;;;0.57;0.57;;;16.40;79.90;;;16.69;65.02;95290.22;5053254;28;20203;-80
2022/07/06 04:06:09;;;;;;;0.60;0.60;;;16.40;79.80;;;16.70;64.99;95307.69;5054923;28;20211;-79
2022/07/06 04:08:36;;;;;;;0.60;0.60;;;16.50;80.00;;;16.72;66.17;95303.00;5052192;28;20195;-79
2022/07/06 04:11:04;;;;;;;0.60;0.60;;;16.50;80.70;;;16.79;66.10;95301.88;5040410;28;20219;-79
2022/07/06 04:13:32;;;;;;;0.60;0.60;;;16.60;80.90;;;16.88;66.21;95315.69;5069998;28;20199;-79
2022/07/06 04:15:59;;;;;;;0.55;0.55;;;16.60;81.20;;;16.96;66.46;95298.69;5071661;28;20234;-78
2022/07/06 04:18:27;;;;;;;0.60;0.60;;;16.70;81.20;;;17.06;66.33;95306.13;5038566;28;20229;-79
2022/07/06 04:20:57;;;;;;;0.52;0.52;;;16.80;81.20;;;17.12;65.85;95291.97;5040056;28;20566;-79
2022/07/06 04:23:25;;;;;;;0.50;0.50;;;16.90;81.20;;;17.19;66.02;95286.59;5040237;28;20209;-79
2022/07/06 04:25:54;;;;;;;0.60;0.60;;;16.90;81.00;;;17.25;65.94;95291.78;5058875;28;20238;-78
2022/07/06 04:28:23;;;;;;;0.70;0.70;;;17.00;80.90;;;17.32;65.74;95304.16;5056466;28;20222;-80
2022/07/06 04:30:51;;;;;;;0.50;0.50;;;17.10;81.00;;;17.36;65.58;95297.38;5056637;28;20218;-79
2022/07/06 04:33:21;;;;;;;0.60;0.60;;;17.20;81.10;;;17.40;66.01;95291.38;5037120;28;20650;-80
2022/07/06 04:35:49;;;;;;;0.50;0.50;;;17.20;80.90;;;17.45;65.94;95285.41;5040165;28;20217;-79
2022/07/06 04:38:18;;;;;;;0.60;0.60;;;17.20;80.80;;;17.50;65.68;95292.69;5036844;28;20310;-80
2022/07/06 04:40:47;;;;;;;0.60;0.60;;;17.30;80.70;;;17.52;65.84;95290.63;5068149;28;20692;-80
2022/07/06 04:43:17;;;;;;;0.50;0.50;;;17.30;80.70;;;17.54;65.61;95299.97;5065575;28;20215;-79
2022/07/06 04:45:44;;;;;;;0.52;0.52;;;17.30;80.60;;;17.57;65.34;95314.63;5056310;28;20771;-79
2022/07/06 04:48:11;;;;;;;0.60;0.60;;;17.30;80.50;;;17.57;65.65;95312.78;5055115;28;20278;-80
2022/07/06 04:50:39;;;;;;;0.70;0.70;;;17.30;80.50;;;17.62;65.44;95316.59;5039747;28;20231;-80
2022/07/06 04:53:11;;;;;;;0.60;0.60;;;17.30;80.60;;;17.63;65.25;95324.34;5056085;28;20199;-80
2022/07/06 04:55:38;;;;;;;0.50;0.50;;;17.40;80.70;;;17.68;65.90;95327.13;5056183;28;20242;-80
2022/07/06 04:58:06;;;;;;;0.52;0.52;;;17.50;80.80;;;17.73;65.86;95334.41;5069356;28;20817;-81
2022/07/06 05:00:33;;;;;;;0.50;0.50;;;17.50;80.80;;;17.78;65.78;95313.28;5072578;28;20305;-80
2022/07/06 05:03:01;;;;;;;0.50;0.50;;;17.50;80.80;;;17.83;65.56;95299.34;5068222;28;20202;-79
2022/07/06 05:05:30;;;;;;;0.50;0.50;;;17.60;80.80;;;17.90;65.41;95294.75;5037359;28;20224;-78
2022/07/06 05:07:59;;;;;;;0.50;0.50;;;17.70;80.70;;;17.94;65.24;95290.59;5068084;28;20202;-80
2022/07/06 05:10:26;;;;;;;0.50;0.50;;;17.80;80.50;;;17.98;64.55;95301.59;5037853;28;20309;-79
2022/07/06 05:12:56;;;;;;;0.50;0.50;;;17.80;80.30;;;18.04;65.33;95296.19;5089300;28;20203;-79
2022/07/06 05:15:25;;;;;;;0.60;0.60;;;17.80;80.10;;;18.06;64.92;95302.06;5051309;28;20219;-79
2022/07/06 05:17:53;;;;;;;0.50;0.50;;;17.90;80.20;;;18.07;65.27;95295.72;5035857;28;20636;-79
2022/07/06 05:20:20;;;;;;;0.50;0.50;;;17.90;80.20;;;18.09;64.50;95282.25;5058997;28;20225;-79
2022/07/06 05:22:48;;;;;;;0.50;0.50;;;17.90;80.20;;;18.06;64.66;95259.59;5072201;28;20273;-79
2022/07/06 05:25:19;;;;;;;0.60;0.60;;;17.90;79.90;;;18.06;63.95;95258.78;5055614;28;20226;-78
2022/07/06 05:27:47;;;;;;;0.50;0.50;;;17.80;79.50;;;18.02;63.90;95260.31;5067778;28;20213;-79
2022/07/06 05:30:15;;;;;;;0.50;0.50;;;17.80;79.40;;;17.96;63.79;95256.72;5035494;28;20661;-79
2022/07/06 05:32:44;;;;;;;0.60;0.60;;;17.80;79.20;;;17.95;64.29;95284.28;5052092;28;20203;-79
2022/07/06 05:35:11;;;;;;;0.50;0.50;;;17.80;79.40;;;17.93;63.90;95278.34;5048593;28;20689;-79
2022/07/06 05:38:00;;;;;;;0.50;0.50;;;17.80;79.50;;;17.92;64.74;95268.81;5038601;28;20764;-79
2022/07/06 05:40:27;;;;;;;0.50;0.50;;;17.80;79.70;;;17.98;64.41;95275.06;5045278;28;20586;-79
2022/07/06 05:42:54;;;;;;;0.50;0.50;;;17.80;80.20;;;18.05;64.56;95289.84;5051467;28;20249;-78
2022/07/06 05:45:22;;;;;;;0.50;0.50;;;17.90;80.20;;;18.12;64.86;95286.28;5051250;28;20738;-80
2022/07/06 05:50:37;;;;;;;0.60;0.60;;;18.00;79.80;;;18.25;64.17;95294.00;5055803;28;20226;-79
2022/07/06 05:53:05;;;;;;;0.50;0.50;;;18.00;79.60;;;18.32;64.36;95292.06;5031005;28;20199;-80
2022/07/06 05:55:46;;;;;;;0.50;0.50;;;18.20;79.50;;;18.40;64.05;95288.22;5067886;28;20226;-80
2022/07/06 05:58:13;;;;;;;0.60;0.60;;;18.30;80.00;;;18.49;64.71;95300.13;5054997;28;20314;-80
2022/07/06 06:00:41;;;;;;;0.50;0.50;;;18.30;80.00;;;18.54;64.89;95302.91;5069591;28;20280;-80
2022/07/06 06:03:14;;;;;;;0.50;0.50;;;18.40;79.90;;;18.64;64.36;95304.16;5051640;28;20203;-80
2022/07/06 06:05:43;;;;;;;0.50;0.50;;;18.50;79.80;;;18.71;64.88;95303.00;5034996;28;20223;-81
2022/07/06 06:08:12;;;;;;;0.50;0.50;;;18.60;79.80;;;18.77;64.08;95309.22;5055806;28;20198;-80
2022/07/06 06:10:39;;;;;;;0.50;0.50;;;18.60;79.60;;;18.83;64.53;95310.13;5054863;28;20218;-80
2022/07/06 06:13:09;;;;;;;0.50;0.50;;;18.70;79.60;;;18.89;64.13;95317.16;5050575;28;20203;-79
2022/07/06 06:15:38;;;;;;;0.50;0.50;;;18.80;79.60;;;18.95;64.34;95305.63;5049629;28;20250;-79
2022/07/06 06:18:05;;;;;;;0.50;0.50;;;18.80;79.70;;;19.02;64.37;95313.50;5038868;28;20292;-80
2022/07/06 06:20:33;;;;;;;0.50;0.50;;;18.90;79.80;;;19.11;64.74;95306.75;5064056;28;20234;-79
2022/07/06 06:23:00;;;;;;;0.50;0.50;;;19.00;79.80;;;19.18;64.34;95309.28;5034888;28;20201;-79
2022/07/06 06:25:34;;;;;;;0.50;0.50;;;19.10;79.70;;;19.18;64.54;95299.44;5043153;28;20630;-78
2022/07/06 06:28:05;;;;;;;0.50;0.50;;;19.20;79.60;;;19.30;64.30;95317.22;5054395;28;20683;-80
2022/07/06 06:30:32;;;;;;;0.50;0.50;;;19.20;79.50;;;19.36;64.81;95324.25;5054621;28;20676;-79
2022/07/06 06:33:32;;;;;;;0.45;0.45;;;19.30;79.80;;;19.38;64.95;95319.50;5055734;28;20631;-79
2022/07/06 06:36:00;;;;;;;0.40;0.40;;;19.40;80.00;;;19.49;64.15;95329.28;5043583;28;20222;-79
2022/07/06 06:38:29;;;;;;;0.45;0.45;;;19.50;79.30;;;19.55;64.22;95332.03;5032609;28;20301;-79
2022/07/06 06:40:57;;;;;;;0.50;0.50;;;19.50;79.50;;;19.65;64.51;95337.53;5033893;28;20280;-80
2022/07/06 06:43:25;;;;;;;0.52;0.52;;;19.60;79.70;;;19.74;64.65;95345.94;5044222;28;20257;-80
2022/07/06 06:46:12;;;;;;;0.50;0.50;;;19.60;79.50;;;19.83;64.06;95342.72;5039989;28;20772;-80
2022/07/06 06:48:40;;;;;;;0.50;0.50;;;19.70;79.50;;;19.92;64.28;95352.94;5034590;28;20269;-79
2022/07/06 06:51:07;;;;;;;0.40;0.40;;;19.90;79.50;;;20.03;63.39;95353.94;5037795;28;20225;-80
2022/07/06 06:53:34;;;;;;;0.47;0.47;;;20.00;79.20;;;20.12;63.44;95355.16;5046182;28;20243;-80
2022/07/06 06:56:06;;;;;;;0.40;0.40;;;20.10;79.30;;;20.26;64.02;95351.13;5043831;28;20218;-81
2022/07/06 06:58:33;;;;;;;0.45;0.45;;;20.20;79.50;;;20.46;64.79;95345.31;5070670;28;20214;-79
2022/07/06 07:01:20;;;;;;;0.40;0.40;;;20.40;80.10;;;20.64;64.07;95343.41;5077072;28;20227;-79
2022/07/06 07:03:47;;;;;;;0.40;0.40;;;20.50;79.50;;;20.81;63.60;95350.63;5041733;28;20217;-81
2022/07/06 07:06:14;;;;;;;0.40;0.40;;;20.70;79.50;;;20.99;63.84;95352.19;5082831;28;20217;-80
2022/07/06 07:08:41;;;;;;;0.40;0.40;;;20.90;79.80;;;21.13;62.70;95349.97;5052458;28;20201;-80
2022/07/06 07:11:09;;;;;;;0.40;0.40;;;21.10;78.80;;;21.28;62.64;95347.50;5058022;28;20216;-80
2022/07/06 07:13:36;;;;;;;0.40;0.40;;;21.20;78.60;;;21.41;62.32;95362.31;5062239;28;20199;-81
2022/07/06 07:16:04;;;;;;;0.40;0.40;;;21.30;78.30;;;21.45;61.48;95358.09;5054254;28;20227;-81
2022/07/06 07:18:31;;;;;;;0.40;0.40;;;21.40;77.70;;;21.41;61.59;95354.28;5038024;28;20228;-80
2022/07/06 07:20:59;;;;;;;0.40;0.40;;;21.50;77.20;;;21.34;60.70;95356.38;5054518;28;20686;-80
2022/07/06 07:23:27;;;;;;;0.40;0.40;;;21.60;76.50;;;21.21;61.20;95352.22;5026454;28;20196;-80
2022/07/06 07:25:54;;;;;;;0.40;0.40;;;21.50;76.30;;;21.20;60.88;95350.59;5040657;28;20238;-80
2022/07/06 07:28:21;;;;;;;0.40;0.40;;;21.50;76.40;;;21.26;61.39;95354.94;5066962;28;20708;-81
2022/07/06 07:30:48;;;;;;;0.30;0.30;;;21.40;76.60;;;21.31;61.52;95363.00;5070906;28;20227;-79
2022/07/06 07:33:15;;;;;;;0.40;0.40;;;21.50;76.80;;;21.40;61.01;95361.50;5080809;28;20197;-80
2022/07/06 07:35:42;;;;;;;0.35;0.35;;;21.50;76.70;;;21.51;61.72;95359.75;5074301;28;20555;-81
2022/07/06 07:38:10;;;;;;;0.30;0.30;;;21.60;77.40;;;21.68;61.78;95357.03;5068658;28;20230;-81
2022/07/06 07:40:37;;;;;;;0.40;0.40;;;21.70;77.40;;;21.83;61.39;95359.06;5037683;28;20289;-80
2022/07/06 07:43:04;;;;;;;0.40;0.40;;;21.80;77.30;;;21.88;59.71;95358.31;5037921;28;20545;-81
2022/07/06 07:45:31;;;;;;;0.40;0.40;;;21.90;75.70;;;21.89;59.27;95355.38;5053275;28;20703;-81
2022/07/06 07:47:58;;;;;;;0.40;0.40;;;21.90;75.60;;;21.94;60.07;95354.63;5043811;28;20206;-80
2022/07/06 07:50:26;;;;;;;0.40;0.40;;;22.00;76.00;;;22.04;60.59;95352.03;5055521;28;20631;-80
2022/07/06 07:52:53;;;;;;;0.50;0.50;;;22.10;76.20;;;22.15;60.73;95338.78;5056266;28;20195;-80
2022/07/06 07:55:22;;;;;;;0.40;0.40;;;22.20;76.30;;;22.38;60.04;95356.38;5037301;28;20311;-80
2022/07/06 07:58:08;;;;;;;0.40;0.40;;;22.20;76.20;;;22.42;58.25;95354.78;5071429;28;20226;-81
2022/07/06 08:00:36;;;;;;;0.40;0.40;;;22.40;75.00;;;22.42;58.09;95352.09;5072601;28;20261;-80
2022/07/06 08:03:04;;;;;;;0.45;0.45;;;22.40;74.30;;;22.41;58.54;95369.22;5055557;28;20209;-81
2022/07/06 08:05:31;;;;;;;0.38;0.38;;;22.50;74.70;;;22.36;57.01;95371.81;5066205;28;20249;-80
2022/07/06 08:07:59;;;;;;;0.40;0.40;;;22.50;73.90;;;22.35;56.97;95364.84;5055378;28;20203;-80
2022/07/06 08:10:26;;;;;;;0.40;0.40;;;22.50;73.50;;;22.41;57.53;95374.56;5050617;28;20932;-80
2022/07/06 08:12:53;;;;;;;0.32;0.32;;;22.50;73.80;;;22.42;56.96;95373.50;5034050;28;20298;-80
2022/07/06 08:15:20;;;;;;;0.32;0.32;;;22.50;73.00;;;22.42;57.43;95364.69;5049773;28;20219;-81
2022/07/06 08:17:48;;;;;;;0.43;0.43;;;22.60;73.40;;;22.45;58.00;95362.28;5055153;28;20289;-80
2022/07/06 08:20:15;;;;;;;0.40;0.40;;;22.60;73.70;;;22.50;57.92;95370.34;5039082;28;20656;-80
2022/07/06 08:22:43;;;;;;;0.40;0.40;;;22.60;73.80;;;22.56;57.95;95368.53;5036481;28;20209;-80
2022/07/06 08:25:10;;;;;;;0.47;0.47;;;22.70;73.90;;;22.66;58.35;95373.16;5054231;28;20313;-81
2022/07/06 08:27:38;;;;;;;0.40;0.40;;;22.70;74.00;;;22.73;57.51;95384.44;5055767;28;20264;-80
2022/07/06 08:30:05;;;;;;;0.40;0.40;;;22.70;73.60;;;22.82;57.98;95388.22;5054768;28;20222;-80
2022/07/06 08:32:32;;;;;;;0.30;0.30;;;22.70;74.20;;;22.95;57.92;95383.47;5070709;28;20191;-79
2022/07/06 08:35:19;;;;;;;0.60;0.60;;;22.90;75.00;;;23.11;58.22;95379.81;5074916;28;20564;-80
2022/07/06 08:37:46;;;;;;;0.30;0.30;;;22.90;73.80;;;23.25;58.01;95384.75;5072066;28;20197;-80
2022/07/06 08:40:14;;;;;;;0.40;0.40;;;23.10;73.90;;;23.31;57.11;95379.16;5080163;28;20223;-81
2022/07/06 08:42:43;;;;;;;0.40;0.40;;;23.20;73.20;;;23.29;55.24;95378.59;5068475;28;20195;-80
2022/07/06 08:45:11;;;;;;;0.40;0.40;;;23.30;71.80;;;23.28;55.80;95381.56;5068241;28;20207;-80
2022/07/06 08:47:41;;;;;;;0.38;0.38;;;23.30;71.70;;;23.24;55.81;95389.28;5035338;28;20222;-80
2022/07/06 08:50:10;;;;;;;0.40;0.40;;;23.30;71.50;;;23.20;55.36;95388.19;5011938;28;1137033;-79
2022/07/06 08:52:38;;;;;;;0.40;0.40;;;23.30;71.40;;;23.17;55.44;95386.06;5068588;28;20659;-79
2022/07/06 08:55:05;;;;;;;0.40;0.40;;;23.20;71.40;;;23.14;55.44;95392.69;5052393;28;20715;-81
2022/07/06 08:57:34;;;;;;;0.40;0.40;;;23.20;71.70;;;23.17;55.64;95386.06;5072435;28;20241;-80
2022/07/06 09:00:02;;;;;;;0.40;0.40;;;23.20;71.40;;;23.18;54.90;95385.00;5051000;28;20606;-80
2022/07/06 09:02:30;;;;;;;0.30;0.30;;;23.20;71.00;;;23.21;54.69;95389.00;5046063;28;20207;-79
2022/07/06 09:04:57;;;;;;;0.40;0.40;;;23.20;70.70;;;23.24;55.30;95381.28;5071836;28;20210;-80
2022/07/06 09:07:28;;;;;;;0.40;0.40;;;23.20;71.50;;;23.33;55.37;95376.22;5070607;28;20197;-80
2022/07/06 09:10:18;;;;;;;0.50;0.50;;;23.30;71.40;;;23.41;55.44;95390.97;5053362;28;20219;-79
2022/07/06 09:12:46;;;;;;;0.35;0.35;;;23.30;72.10;;;23.47;55.32;95384.56;5052163;28;20210;-80
2022/07/06 09:15:14;;;;;;;0.40;0.40;;;23.40;71.70;;;23.56;55.38;95393.72;5055409;28;20219;-80
2022/07/06 09:17:43;;;;;;;0.40;0.40;;;23.40;71.20;;;23.65;55.13;95388.66;5062508;28;20196;-81
2022/07/06 09:20:12;;;;;;;0.40;0.40;;;23.60;71.40;;;23.78;54.93;95385.47;5048408;28;20235;-81
2022/07/06 09:22:40;;;;;;;0.40;0.40;;;23.60;71.70;;;23.92;54.92;95385.78;5064674;28;20202;-81
2022/07/06 09:25:15;;;;;;;0.30;0.30;;;23.80;71.20;;;24.14;55.63;95390.13;5051970;28;20223;-81
2022/07/06 09:27:49;;;;;;;0.35;0.35;;;23.90;71.50;;;24.28;55.09;95385.84;5088469;28;20194;-82
2022/07/06 09:30:17;;;;;;;0.30;0.30;;;24.10;71.40;;;24.48;54.54;95386.91;5029576;28;20232;-82
2022/07/06 09:32:50;;;;;;;0.32;0.32;;;24.30;70.70;;;24.60;54.98;95395.50;5068200;28;20192;-81
2022/07/06 09:35:24;;;;;;;0.30;0.30;;;24.40;71.20;;;24.78;54.84;95385.34;5051028;28;20216;-81
2022/07/06 09:38:03;;;;;;;0.30;0.30;;;24.60;71.30;;;24.94;52.71;95392.28;5062253;28;20209;-81
2022/07/06 09:40:35;;;;;;;0.40;0.40;;;24.80;69.50;;;25.02;53.14;95387.44;5056453;28;20654;-81
2022/07/06 09:43:22;;;;;;;0.30;0.30;;;24.90;70.00;;;25.00;49.67;95395.75;5035443;28;20230;-81
2022/07/06 09:45:56;;;;;;;0.40;0.40;;;25.00;68.10;;;24.96;51.54;95383.94;5043687;28;20218;-81
2022/07/06 09:48:27;;;;;;;0.50;0.50;;;25.00;68.30;;;24.93;52.53;95377.25;5054646;28;20198;-82
2022/07/06 09:51:03;;;;;;;0.50;0.50;;;25.00;68.70;;;24.94;51.39;95378.84;5071552;28;20227;-81
2022/07/06 09:53:30;;;;;;;0.40;0.40;;;25.00;67.40;;;24.96;51.03;95380.47;5055818;28;20194;-81
2022/07/06 09:55:58;;;;;;;0.40;0.40;;;25.00;68.30;;;24.96;51.59;95381.25;5050091;28;20691;-80
2022/07/06 09:58:25;;;;;;;0.30;0.30;;;25.00;67.40;;;24.97;51.04;95376.72;5051872;28;20678;-81
2022/07/06 10:01:25;;;;;;;0.30;0.30;;;25.00;67.40;;;24.92;51.96;95390.94;5023997;28;20216;-81
2022/07/06 10:03:52;;;;;;;0.30;0.30;;;25.00;67.80;;;24.93;52.26;95387.19;5035126;28;20628;-80
2022/07/06 10:06:20;;;;;;;0.30;0.30;;;25.00;67.90;;;24.99;52.36;95382.63;5070698;28;20220;-81
2022/07/06 10:08:47;;;;;;;0.30;0.30;;;24.90;68.00;;;25.07;52.05;95392.78;5070922;28;20574;-80
2022/07/06 10:11:15;;;;;;;0.40;0.40;;;25.00;67.70;;;25.11;50.70;95391.19;5055572;28;20215;-81
2022/07/06 10:13:45;;;;;;;0.35;0.35;;;25.10;67.50;;;25.14;50.15;95389.81;5055080;28;20282;-81
2022/07/06 10:16:14;;;;;;;0.50;0.50;;;25.10;66.70;;;25.16;50.28;95391.16;5051643;28;20242;-81
2022/07/06 10:18:42;;;;;;;0.30;0.30;;;25.10;67.00;;;25.23;50.87;95388.16;5036857;28;20209;-81
2022/07/06 10:21:10;;;;;;;0.50;0.50;;;25.20;67.50;;;25.28;51.41;95374.75;5054669;28;20329;-81
2022/07/06 10:23:39;;;;;;;0.30;0.30;;;25.30;68.40;;;25.38;50.36;95385.47;5050753;28;20202;-81
2022/07/06 10:26:08;;;;;;;0.50;0.50;;;25.40;67.20;;;25.37;48.00;95380.34;5035575;28;20208;-80
2022/07/06 10:28:42;;;;;;;0.30;0.30;;;25.40;65.00;;;25.37;47.99;95372.28;5036958;28;20259;-81
2022/07/06 10:31:10;;;;;;;0.40;0.40;;;25.40;64.70;;;25.41;49.18;95363.44;5068219;28;20229;-79
2022/07/06 10:33:40;;;;;;;0.50;0.50;;;25.50;65.80;;;25.53;49.70;95359.63;5087794;28;20205;-81